sensor_id;sensor_type;location;lat;lon;timestamp;P1;durP1;ratioP1;P2;durP2;ratioP2
70927;SDS011;58587;53.034;18.576;2022-08-25T07:47:18;12.75;;;6.30;;
70927;SDS011;58587;53.034;18.576;2022-08-25T07:49:43;15.60;;;7.53;;
70927;SDS011;58587;53.034;18.576;2022-08-25T07:52:08;14.80;;;7.03;;
70927;SDS011;58587;53.034;18.576;2022-08-25T07:54:34;11.77;;;6.50;;
70927;SDS011;58587;53.034;18.576;2022-08-25T07:57:05;18.75;;;7.13;;
70927;SDS011;58587;53.034;18.576;2022-08-25T07:59:31;13.02;;;6.72;;
70927;SDS011;58587;53.034;18.576;2022-08-25T08:01:57;14.00;;;7.50;;
70927;SDS011;58587;53.034;18.576;2022-08-25T08:04:22;15.27;;;7.30;;
70927;SDS011;58587;53.034;18.576;2022-08-25T08:06:48;14.47;;;6.90;;
70927;SDS011;58587;53.034;18.576;2022-08-25T08:09:13;15.50;;;6.30;;
70927;SDS011;58587;53.034;18.576;2022-08-25T08:11:40;13.38;;;6.32;;
70927;SDS011;58587;53.034;18.576;2022-08-25T08:14:09;12.02;;;6.05;;
70927;SDS011;58587;53.034;18.576;2022-08-25T08:16:35;14.50;;;7.00;;
70927;SDS011;58587;53.034;18.576;2022-08-25T08:19:01;16.20;;;6.90;;
70927;SDS011;58587;53.034;18.576;2022-08-25T08:21:28;12.77;;;6.00;;
70927;SDS011;58587;53.034;18.576;2022-08-25T08:23:56;14.30;;;5.97;;
70927;SDS011;58587;53.034;18.576;2022-08-25T08:26:22;13.50;;;5.90;;
70927;SDS011;58587;53.034;18.576;2022-08-25T08:28:49;9.35;;;5.22;;
70927;SDS011;58587;53.034;18.576;2022-08-25T08:31:17;13.43;;;6.40;;
70927;SDS011;58587;53.034;18.576;2022-08-25T08:33:47;15.47;;;6.37;;
70927;SDS011;58587;53.034;18.576;2022-08-25T08:36:15;10.20;;;5.50;;
70927;SDS011;58587;53.034;18.576;2022-08-25T08:38:41;12.13;;;5.60;;
70927;SDS011;58587;53.034;18.576;2022-08-25T08:47:03;11.10;;;4.87;;
70927;SDS011;58587;53.034;18.576;2022-08-25T08:50:25;14.23;;;5.32;;
70927;SDS011;58587;53.034;18.576;2022-08-25T08:52:40;11.23;;;4.63;;
70927;SDS011;58587;53.034;18.576;2022-08-25T08:55:09;11.55;;;5.18;;
70927;SDS011;58587;53.034;18.576;2022-08-25T08:57:42;11.02;;;4.65;;
70927;SDS011;58587;53.034;18.576;2022-08-25T09:00:11;13.67;;;5.00;;
70927;SDS011;58587;53.034;18.576;2022-08-25T09:02:44;12.68;;;4.10;;
70927;SDS011;58587;53.034;18.576;2022-08-25T09:05:31;13.18;;;4.03;;
70927;SDS011;58587;53.034;18.576;2022-08-25T09:08:04;10.25;;;4.20;;
70927;SDS011;58587;53.034;18.576;2022-08-25T09:11:22;10.68;;;4.78;;
70927;SDS011;58587;53.034;18.576;2022-08-25T09:16:19;12.65;;;4.53;;
70927;SDS011;58587;53.034;18.576;2022-08-25T09:22:30;11.77;;;4.88;;
70927;SDS011;58587;53.034;18.576;2022-08-25T09:25:17;10.45;;;3.70;;
70927;SDS011;58587;53.034;18.576;2022-08-25T09:30:30;9.85;;;4.15;;
70927;SDS011;58587;53.034;18.576;2022-08-25T09:33:05;10.48;;;4.45;;
70927;SDS011;58587;53.034;18.576;2022-08-25T09:35:33;7.95;;;4.43;;
70927;SDS011;58587;53.034;18.576;2022-08-25T09:38:05;11.93;;;4.60;;
70927;SDS011;58587;53.034;18.576;2022-08-25T09:40:37;11.53;;;5.23;;
70927;SDS011;58587;53.034;18.576;2022-08-25T09:43:17;12.98;;;4.63;;
70927;SDS011;58587;53.034;18.576;2022-08-25T09:46:01;10.65;;;5.03;;
70927;SDS011;58587;53.034;18.576;2022-08-25T09:48:31;11.63;;;4.88;;
70927;SDS011;58587;53.034;18.576;2022-08-25T09:51:26;12.77;;;4.55;;
70927;SDS011;58587;53.034;18.576;2022-08-25T09:53:54;10.20;;;5.27;;
70927;SDS011;58587;53.034;18.576;2022-08-25T09:56:29;12.73;;;4.85;;
70927;SDS011;58587;53.034;18.576;2022-08-25T09:59:17;13.48;;;5.28;;
70927;SDS011;58587;53.034;18.576;2022-08-25T10:01:46;9.95;;;4.88;;
70927;SDS011;58587;53.034;18.576;2022-08-25T10:04:33;11.32;;;4.60;;
70927;SDS011;58587;53.034;18.576;2022-08-25T10:07:01;11.33;;;4.83;;
70927;SDS011;58587;53.034;18.576;2022-08-25T10:09:43;11.88;;;4.93;;
70927;SDS011;58587;53.034;18.576;2022-08-25T10:12:34;12.35;;;4.30;;
70927;SDS011;58587;53.034;18.576;2022-08-25T10:15:26;7.90;;;4.32;;
70927;SDS011;58587;53.034;18.576;2022-08-25T10:18:15;8.07;;;4.32;;
70927;SDS011;58587;53.034;18.576;2022-08-25T10:23:27;12.95;;;4.47;;
70927;SDS011;58587;53.034;18.576;2022-08-25T10:25:53;10.20;;;4.50;;
70927;SDS011;58587;53.034;18.576;2022-08-25T10:31:23;9.65;;;4.47;;
70927;SDS011;58587;53.034;18.576;2022-08-25T10:39:21;9.07;;;4.60;;
70927;SDS011;58587;53.034;18.576;2022-08-25T11:00:54;13.43;;;4.33;;
70927;SDS011;58587;53.034;18.576;2022-08-25T11:03:46;9.88;;;4.25;;
70927;SDS011;58587;53.034;18.576;2022-08-25T11:06:19;11.15;;;4.18;;
70927;SDS011;58587;53.034;18.576;2022-08-25T11:08:52;12.38;;;4.85;;
70927;SDS011;58587;53.034;18.576;2022-08-25T11:11:23;13.93;;;4.20;;
70927;SDS011;58587;53.034;18.576;2022-08-25T11:14:06;10.03;;;4.07;;
70927;SDS011;58587;53.034;18.576;2022-08-25T11:16:42;7.07;;;3.70;;
70927;SDS011;58587;53.034;18.576;2022-08-25T11:19:17;11.63;;;4.18;;
70927;SDS011;58587;53.034;18.576;2022-08-25T11:21:48;11.30;;;4.22;;
70927;SDS011;58587;53.034;18.576;2022-08-25T11:24:26;7.97;;;4.18;;
70927;SDS011;58587;53.034;18.576;2022-08-25T11:26:58;10.37;;;4.40;;
70927;SDS011;58587;53.034;18.576;2022-08-25T11:29:29;11.75;;;4.25;;
70927;SDS011;58587;53.034;18.576;2022-08-25T11:31:59;10.93;;;3.85;;
70927;SDS011;58587;53.034;18.576;2022-08-25T11:34:26;11.55;;;4.40;;
70927;SDS011;58587;53.034;18.576;2022-08-25T11:37:17;11.02;;;4.10;;
70927;SDS011;58587;53.034;18.576;2022-08-25T11:42:43;9.93;;;4.15;;
70927;SDS011;58587;53.034;18.576;2022-08-25T11:48:10;10.40;;;4.50;;
70927;SDS011;58587;53.034;18.576;2022-08-25T11:53:31;17.33;;;4.47;;
70927;SDS011;58587;53.034;18.576;2022-08-25T11:56:29;8.02;;;4.13;;
70927;SDS011;58587;53.034;18.576;2022-08-25T11:59:02;12.32;;;4.18;;
70927;SDS011;58587;53.034;18.576;2022-08-25T12:04:14;8.00;;;3.80;;
70927;SDS011;58587;53.034;18.576;2022-08-25T12:09:30;9.50;;;3.65;;
70927;SDS011;58587;53.034;18.576;2022-08-25T12:15:24;12.07;;;3.72;;
70927;SDS011;58587;53.034;18.576;2022-08-25T12:39:42;11.00;;;2.90;;
70927;SDS011;58587;53.034;18.576;2022-08-25T12:42:27;7.80;;;3.13;;
70927;SDS011;58587;53.034;18.576;2022-08-25T12:45:34;8.52;;;3.00;;
70927;SDS011;58587;53.034;18.576;2022-08-25T12:51:05;8.52;;;3.08;;
70927;SDS011;58587;53.034;18.576;2022-08-25T12:53:38;13.10;;;3.42;;
70927;SDS011;58587;53.034;18.576;2022-08-25T12:56:51;16.63;;;3.83;;
70927;SDS011;58587;53.034;18.576;2022-08-25T12:59:10;13.73;;;3.60;;
70927;SDS011;58587;53.034;18.576;2022-08-25T13:12:51;18.42;;;4.57;;
70927;SDS011;58587;53.034;18.576;2022-08-25T13:16:01;18.35;;;4.85;;
70927;SDS011;58587;53.034;18.576;2022-08-25T13:18:31;18.05;;;4.20;;
70927;SDS011;58587;53.034;18.576;2022-08-25T13:23:43;14.17;;;4.90;;
70927;SDS011;58587;53.034;18.576;2022-08-25T13:26:13;20.60;;;5.70;;
70927;SDS011;58587;53.034;18.576;2022-08-25T13:28:40;19.98;;;5.22;;
70927;SDS011;58587;53.034;18.576;2022-08-25T13:31:08;20.10;;;5.35;;
70927;SDS011;58587;53.034;18.576;2022-08-25T13:33:45;20.60;;;5.70;;
70927;SDS011;58587;53.034;18.576;2022-08-25T13:36:15;22.50;;;5.37;;
70927;SDS011;58587;53.034;18.576;2022-08-25T13:39:08;17.90;;;5.10;;
70927;SDS011;58587;53.034;18.576;2022-08-25T13:41:35;19.85;;;5.80;;
70927;SDS011;58587;53.034;18.576;2022-08-25T13:44:01;18.73;;;5.30;;
70927;SDS011;58587;53.034;18.576;2022-08-25T13:46:26;18.55;;;5.28;;
70927;SDS011;58587;53.034;18.576;2022-08-25T13:49:00;17.73;;;5.13;;
70927;SDS011;58587;53.034;18.576;2022-08-25T13:51:28;19.17;;;5.50;;
70927;SDS011;58587;53.034;18.576;2022-08-25T13:53:57;19.47;;;5.33;;
70927;SDS011;58587;53.034;18.576;2022-08-25T13:56:34;21.77;;;5.80;;
70927;SDS011;58587;53.034;18.576;2022-08-25T13:59:03;24.40;;;5.80;;
70927;SDS011;58587;53.034;18.576;2022-08-25T14:01:34;21.52;;;5.63;;
70927;SDS011;58587;53.034;18.576;2022-08-25T14:07:03;20.92;;;5.80;;
70927;SDS011;58587;53.034;18.576;2022-08-25T14:09:48;23.58;;;6.13;;
70927;SDS011;58587;53.034;18.576;2022-08-25T14:12:25;20.63;;;6.05;;
70927;SDS011;58587;53.034;18.576;2022-08-25T14:20:47;24.92;;;5.95;;
70927;SDS011;58587;53.034;18.576;2022-08-25T14:23:18;21.98;;;5.57;;
70927;SDS011;58587;53.034;18.576;2022-08-25T14:25:47;21.23;;;5.60;;
70927;SDS011;58587;53.034;18.576;2022-08-25T14:28:15;22.67;;;5.80;;
70927;SDS011;58587;53.034;18.576;2022-08-25T14:30:45;23.87;;;6.20;;
70927;SDS011;58587;53.034;18.576;2022-08-25T14:33:13;24.50;;;5.63;;
70927;SDS011;58587;53.034;18.576;2022-08-25T14:35:42;31.55;;;6.25;;
70927;SDS011;58587;53.034;18.576;2022-08-25T14:38:11;23.20;;;5.90;;
70927;SDS011;58587;53.034;18.576;2022-08-25T14:40:36;22.53;;;5.90;;
70927;SDS011;58587;53.034;18.576;2022-08-25T14:43:03;25.75;;;5.80;;
70927;SDS011;58587;53.034;18.576;2022-08-25T14:45:29;24.90;;;5.65;;
70927;SDS011;58587;53.034;18.576;2022-08-25T14:47:55;30.27;;;6.67;;
70927;SDS011;58587;53.034;18.576;2022-08-25T14:50:27;20.33;;;5.40;;
70927;SDS011;58587;53.034;18.576;2022-08-25T14:52:53;24.52;;;5.68;;
70927;SDS011;58587;53.034;18.576;2022-08-25T14:55:19;23.20;;;5.80;;
70927;SDS011;58587;53.034;18.576;2022-08-25T14:57:44;29.03;;;5.97;;
70927;SDS011;58587;53.034;18.576;2022-08-25T15:00:10;19.20;;;6.00;;
70927;SDS011;58587;53.034;18.576;2022-08-25T15:02:37;22.05;;;5.45;;
70927;SDS011;58587;53.034;18.576;2022-08-25T15:05:06;15.75;;;5.70;;
70927;SDS011;58587;53.034;18.576;2022-08-25T15:07:36;22.40;;;5.93;;
70927;SDS011;58587;53.034;18.576;2022-08-25T15:10:20;20.52;;;5.70;;
70927;SDS011;58587;53.034;18.576;2022-08-25T15:12:46;23.70;;;5.70;;
70927;SDS011;58587;53.034;18.576;2022-08-25T15:15:11;19.57;;;5.87;;
70927;SDS011;58587;53.034;18.576;2022-08-25T15:17:37;19.83;;;5.47;;
70927;SDS011;58587;53.034;18.576;2022-08-25T15:20:06;20.80;;;5.93;;
70927;SDS011;58587;53.034;18.576;2022-08-25T15:22:32;16.02;;;5.70;;
70927;SDS011;58587;53.034;18.576;2022-08-25T15:24:57;28.20;;;6.43;;
70927;SDS011;58587;53.034;18.576;2022-08-25T15:27:22;20.80;;;5.80;;
70927;SDS011;58587;53.034;18.576;2022-08-25T15:29:48;27.30;;;6.32;;
70927;SDS011;58587;53.034;18.576;2022-08-25T15:32:13;18.10;;;5.70;;
70927;SDS011;58587;53.034;18.576;2022-08-25T15:34:39;20.38;;;5.18;;
70927;SDS011;58587;53.034;18.576;2022-08-25T15:37:06;22.73;;;5.87;;
70927;SDS011;58587;53.034;18.576;2022-08-25T15:39:34;21.40;;;5.40;;
70927;SDS011;58587;53.034;18.576;2022-08-25T15:42:00;20.25;;;5.80;;
70927;SDS011;58587;53.034;18.576;2022-08-25T15:44:26;20.40;;;5.70;;
70927;SDS011;58587;53.034;18.576;2022-08-25T15:46:52;20.65;;;5.63;;
70927;SDS011;58587;53.034;18.576;2022-08-25T15:49:18;20.83;;;5.45;;
70927;SDS011;58587;53.034;18.576;2022-08-25T15:51:44;20.17;;;5.33;;
70927;SDS011;58587;53.034;18.576;2022-08-25T15:54:10;19.23;;;5.50;;
70927;SDS011;58587;53.034;18.576;2022-08-25T15:56:38;21.15;;;6.03;;
70927;SDS011;58587;53.034;18.576;2022-08-25T15:59:03;23.15;;;6.18;;
70927;SDS011;58587;53.034;18.576;2022-08-25T16:01:29;23.27;;;6.30;;
70927;SDS011;58587;53.034;18.576;2022-08-25T16:03:54;20.07;;;5.40;;
70927;SDS011;58587;53.034;18.576;2022-08-25T16:06:21;16.67;;;5.28;;
70927;SDS011;58587;53.034;18.576;2022-08-25T16:08:48;24.52;;;5.47;;
70927;SDS011;58587;53.034;18.576;2022-08-25T16:11:18;19.63;;;5.55;;
70927;SDS011;58587;53.034;18.576;2022-08-25T16:13:45;24.60;;;5.50;;
70927;SDS011;58587;53.034;18.576;2022-08-25T16:16:12;22.13;;;6.00;;
70927;SDS011;58587;53.034;18.576;2022-08-25T16:18:39;23.33;;;5.82;;
70927;SDS011;58587;53.034;18.576;2022-08-25T16:21:12;18.55;;;5.78;;
70927;SDS011;58587;53.034;18.576;2022-08-25T16:23:39;24.92;;;6.43;;
70927;SDS011;58587;53.034;18.576;2022-08-25T16:26:05;15.77;;;5.07;;
70927;SDS011;58587;53.034;18.576;2022-08-25T16:28:33;15.75;;;5.88;;
70927;SDS011;58587;53.034;18.576;2022-08-25T16:30:59;19.95;;;6.30;;
70927;SDS011;58587;53.034;18.576;2022-08-25T16:33:25;18.60;;;5.83;;
70927;SDS011;58587;53.034;18.576;2022-08-25T16:35:50;19.77;;;6.60;;
70927;SDS011;58587;53.034;18.576;2022-08-25T16:38:16;17.75;;;5.70;;
70927;SDS011;58587;53.034;18.576;2022-08-25T16:40:41;25.23;;;6.47;;
70927;SDS011;58587;53.034;18.576;2022-08-25T16:43:08;20.05;;;5.90;;
70927;SDS011;58587;53.034;18.576;2022-08-25T16:45:34;17.35;;;6.18;;
70927;SDS011;58587;53.034;18.576;2022-08-25T16:48:00;25.30;;;6.77;;
70927;SDS011;58587;53.034;18.576;2022-08-25T16:50:26;21.05;;;7.32;;
70927;SDS011;58587;53.034;18.576;2022-08-25T16:52:54;19.67;;;6.88;;
70927;SDS011;58587;53.034;18.576;2022-08-25T16:55:38;22.92;;;6.78;;
70927;SDS011;58587;53.034;18.576;2022-08-25T16:58:04;23.73;;;7.87;;
70927;SDS011;58587;53.034;18.576;2022-08-25T17:00:29;20.40;;;7.10;;
70927;SDS011;58587;53.034;18.576;2022-08-25T17:02:59;18.47;;;6.63;;
70927;SDS011;58587;53.034;18.576;2022-08-25T17:05:28;19.67;;;7.03;;
70927;SDS011;58587;53.034;18.576;2022-08-25T17:07:55;21.67;;;7.15;;
70927;SDS011;58587;53.034;18.576;2022-08-25T17:10:42;19.17;;;6.07;;
70927;SDS011;58587;53.034;18.576;2022-08-25T17:13:08;24.80;;;6.47;;
70927;SDS011;58587;53.034;18.576;2022-08-25T17:15:37;21.52;;;7.35;;
70927;SDS011;58587;53.034;18.576;2022-08-25T17:18:04;15.95;;;6.70;;
70927;SDS011;58587;53.034;18.576;2022-08-25T17:20:30;20.10;;;7.33;;
70927;SDS011;58587;53.034;18.576;2022-08-25T17:22:55;22.80;;;6.87;;
70927;SDS011;58587;53.034;18.576;2022-08-25T17:25:21;16.08;;;6.63;;
70927;SDS011;58587;53.034;18.576;2022-08-25T17:27:46;23.70;;;7.20;;
70927;SDS011;58587;53.034;18.576;2022-08-25T17:30:12;19.97;;;7.70;;
70927;SDS011;58587;53.034;18.576;2022-08-25T17:32:37;19.05;;;7.30;;
70927;SDS011;58587;53.034;18.576;2022-08-25T17:35:03;16.27;;;6.87;;
70927;SDS011;58587;53.034;18.576;2022-08-25T17:37:28;21.10;;;7.45;;
70927;SDS011;58587;53.034;18.576;2022-08-25T17:39:54;22.77;;;8.20;;
70927;SDS011;58587;53.034;18.576;2022-08-25T17:42:19;21.10;;;8.50;;
70927;SDS011;58587;53.034;18.576;2022-08-25T17:44:45;20.77;;;9.37;;
70927;SDS011;58587;53.034;18.576;2022-08-25T17:47:10;16.57;;;8.40;;
70927;SDS011;58587;53.034;18.576;2022-08-25T17:49:35;30.65;;;11.20;;
70927;SDS011;58587;53.034;18.576;2022-08-25T17:52:01;27.80;;;10.70;;
70927;SDS011;58587;53.034;18.576;2022-08-25T17:54:27;37.95;;;12.73;;
70927;SDS011;58587;53.034;18.576;2022-08-25T17:56:53;30.43;;;10.83;;
70927;SDS011;58587;53.034;18.576;2022-08-25T17:59:18;22.00;;;9.70;;
70927;SDS011;58587;53.034;18.576;2022-08-25T18:01:43;24.23;;;9.60;;
70927;SDS011;58587;53.034;18.576;2022-08-25T18:04:10;21.60;;;8.57;;
70927;SDS011;58587;53.034;18.576;2022-08-25T18:06:35;21.35;;;7.72;;
70927;SDS011;58587;53.034;18.576;2022-08-25T18:09:02;16.93;;;7.10;;
70927;SDS011;58587;53.034;18.576;2022-08-25T18:11:29;22.55;;;7.53;;
70927;SDS011;58587;53.034;18.576;2022-08-25T18:13:55;16.70;;;7.30;;
70927;SDS011;58587;53.034;18.576;2022-08-25T18:16:21;22.93;;;7.10;;
70927;SDS011;58587;53.034;18.576;2022-08-25T18:18:47;18.60;;;7.95;;
70927;SDS011;58587;53.034;18.576;2022-08-25T18:21:14;22.42;;;7.72;;
70927;SDS011;58587;53.034;18.576;2022-08-25T18:23:42;27.53;;;8.27;;
70927;SDS011;58587;53.034;18.576;2022-08-25T18:26:08;20.48;;;7.22;;
70927;SDS011;58587;53.034;18.576;2022-08-25T18:28:34;24.85;;;7.82;;
70927;SDS011;58587;53.034;18.576;2022-08-25T18:31:00;16.93;;;6.67;;
70927;SDS011;58587;53.034;18.576;2022-08-25T18:33:25;16.98;;;7.15;;
70927;SDS011;58587;53.034;18.576;2022-08-25T18:35:51;21.67;;;7.50;;
70927;SDS011;58587;53.034;18.576;2022-08-25T18:38:16;22.83;;;7.63;;
70927;SDS011;58587;53.034;18.576;2022-08-25T18:41:01;29.52;;;13.20;;
70927;SDS011;58587;53.034;18.576;2022-08-25T18:43:29;22.75;;;9.30;;
70927;SDS011;58587;53.034;18.576;2022-08-25T18:45:56;19.07;;;7.40;;
70927;SDS011;58587;53.034;18.576;2022-08-25T18:48:23;21.75;;;7.78;;
70927;SDS011;58587;53.034;18.576;2022-08-25T18:50:50;25.02;;;7.40;;
70927;SDS011;58587;53.034;18.576;2022-08-25T18:53:17;21.33;;;7.32;;
70927;SDS011;58587;53.034;18.576;2022-08-25T18:55:43;22.00;;;7.73;;
70927;SDS011;58587;53.034;18.576;2022-08-25T18:58:09;23.73;;;9.15;;
70927;SDS011;58587;53.034;18.576;2022-08-25T19:00:35;27.35;;;9.50;;
70927;SDS011;58587;53.034;18.576;2022-08-25T19:03:02;22.00;;;8.63;;
70927;SDS011;58587;53.034;18.576;2022-08-25T19:05:30;29.87;;;8.70;;
70927;SDS011;58587;53.034;18.576;2022-08-25T19:08:02;19.13;;;8.15;;
70927;SDS011;58587;53.034;18.576;2022-08-25T19:10:29;24.40;;;8.85;;
70927;SDS011;58587;53.034;18.576;2022-08-25T19:12:57;23.95;;;8.90;;
70927;SDS011;58587;53.034;18.576;2022-08-25T19:15:24;22.13;;;8.75;;
70927;SDS011;58587;53.034;18.576;2022-08-25T19:17:50;21.40;;;8.20;;
70927;SDS011;58587;53.034;18.576;2022-08-25T19:20:17;20.92;;;8.43;;
70927;SDS011;58587;53.034;18.576;2022-08-25T19:22:42;22.00;;;8.43;;
70927;SDS011;58587;53.034;18.576;2022-08-25T19:25:09;23.87;;;8.93;;
70927;SDS011;58587;53.034;18.576;2022-08-25T19:27:36;23.20;;;9.10;;
70927;SDS011;58587;53.034;18.576;2022-08-25T19:30:03;27.27;;;9.15;;
70927;SDS011;58587;53.034;18.576;2022-08-25T19:32:29;24.35;;;8.60;;
70927;SDS011;58587;53.034;18.576;2022-08-25T19:34:55;23.40;;;9.07;;
70927;SDS011;58587;53.034;18.576;2022-08-25T19:37:22;21.77;;;8.90;;
70927;SDS011;58587;53.034;18.576;2022-08-25T19:39:49;20.60;;;9.50;;
70927;SDS011;58587;53.034;18.576;2022-08-25T19:42:18;23.95;;;10.07;;
70927;SDS011;58587;53.034;18.576;2022-08-25T19:44:46;19.38;;;9.93;;
70927;SDS011;58587;53.034;18.576;2022-08-25T19:47:12;20.20;;;9.60;;
70927;SDS011;58587;53.034;18.576;2022-08-25T19:49:38;22.08;;;10.05;;
70927;SDS011;58587;53.034;18.576;2022-08-25T19:52:05;22.35;;;9.98;;
70927;SDS011;58587;53.034;18.576;2022-08-25T19:54:39;19.40;;;9.95;;
70927;SDS011;58587;53.034;18.576;2022-08-25T19:57:08;26.77;;;10.03;;
70927;SDS011;58587;53.034;18.576;2022-08-25T19:59:35;23.98;;;10.40;;
70927;SDS011;58587;53.034;18.576;2022-08-25T20:02:03;23.55;;;11.00;;
70927;SDS011;58587;53.034;18.576;2022-08-25T20:04:30;22.45;;;10.70;;
70927;SDS011;58587;53.034;18.576;2022-08-25T20:06:56;22.25;;;10.95;;
70927;SDS011;58587;53.034;18.576;2022-08-25T20:09:21;26.23;;;11.33;;
70927;SDS011;58587;53.034;18.576;2022-08-25T20:11:49;23.40;;;11.60;;
70927;SDS011;58587;53.034;18.576;2022-08-25T20:14:15;21.57;;;10.77;;
70927;SDS011;58587;53.034;18.576;2022-08-25T20:16:40;21.33;;;11.60;;
70927;SDS011;58587;53.034;18.576;2022-08-25T20:19:07;22.20;;;11.27;;
70927;SDS011;58587;53.034;18.576;2022-08-25T20:21:33;24.73;;;12.03;;
70927;SDS011;58587;53.034;18.576;2022-08-25T20:23:59;22.20;;;11.73;;
70927;SDS011;58587;53.034;18.576;2022-08-25T20:26:43;28.13;;;11.10;;
70927;SDS011;58587;53.034;18.576;2022-08-25T20:29:09;26.35;;;11.63;;
70927;SDS011;58587;53.034;18.576;2022-08-25T20:31:35;26.20;;;11.53;;
70927;SDS011;58587;53.034;18.576;2022-08-25T20:34:01;20.23;;;10.70;;
70927;SDS011;58587;53.034;18.576;2022-08-25T20:36:27;23.23;;;11.77;;
70927;SDS011;58587;53.034;18.576;2022-08-25T20:38:52;28.58;;;12.00;;
70927;SDS011;58587;53.034;18.576;2022-08-25T20:41:18;19.43;;;11.27;;
70927;SDS011;58587;53.034;18.576;2022-08-25T20:43:43;21.53;;;10.40;;
70927;SDS011;58587;53.034;18.576;2022-08-25T20:46:08;21.10;;;11.60;;
70927;SDS011;58587;53.034;18.576;2022-08-25T20:48:34;24.05;;;12.13;;
70927;SDS011;58587;53.034;18.576;2022-08-25T20:51:04;24.88;;;12.52;;
70927;SDS011;58587;53.034;18.576;2022-08-25T20:53:31;23.50;;;11.43;;
70927;SDS011;58587;53.034;18.576;2022-08-25T20:55:59;24.70;;;11.55;;
70927;SDS011;58587;53.034;18.576;2022-08-25T20:58:24;24.97;;;12.13;;
70927;SDS011;58587;53.034;18.576;2022-08-25T21:00:50;22.70;;;11.32;;
70927;SDS011;58587;53.034;18.576;2022-08-25T21:03:15;20.70;;;11.60;;
70927;SDS011;58587;53.034;18.576;2022-08-25T21:05:41;21.90;;;12.65;;
70927;SDS011;58587;53.034;18.576;2022-08-25T21:08:07;23.97;;;12.40;;
70927;SDS011;58587;53.034;18.576;2022-08-25T21:10:33;22.80;;;12.48;;
70927;SDS011;58587;53.034;18.576;2022-08-25T21:12:58;21.50;;;11.10;;
70927;SDS011;58587;53.034;18.576;2022-08-25T21:15:24;22.40;;;11.60;;
70927;SDS011;58587;53.034;18.576;2022-08-25T21:17:51;23.80;;;11.85;;
70927;SDS011;58587;53.034;18.576;2022-08-25T21:20:18;19.73;;;11.88;;
70927;SDS011;58587;53.034;18.576;2022-08-25T21:22:45;22.33;;;12.07;;
70927;SDS011;58587;53.034;18.576;2022-08-25T21:25:11;23.23;;;11.90;;
70927;SDS011;58587;53.034;18.576;2022-08-25T21:27:37;22.50;;;11.45;;
70927;SDS011;58587;53.034;18.576;2022-08-25T21:30:03;22.77;;;12.07;;
70927;SDS011;58587;53.034;18.576;2022-08-25T21:32:30;25.15;;;12.65;;
70927;SDS011;58587;53.034;18.576;2022-08-25T21:34:56;25.20;;;12.05;;
70927;SDS011;58587;53.034;18.576;2022-08-25T21:37:21;19.23;;;11.33;;
70927;SDS011;58587;53.034;18.576;2022-08-25T21:39:47;22.55;;;11.07;;
70927;SDS011;58587;53.034;18.576;2022-08-25T21:42:13;24.07;;;11.50;;
70927;SDS011;58587;53.034;18.576;2022-08-25T21:44:38;21.67;;;11.60;;
70927;SDS011;58587;53.034;18.576;2022-08-25T21:47:04;27.10;;;12.37;;
70927;SDS011;58587;53.034;18.576;2022-08-25T21:49:29;24.13;;;11.97;;
70927;SDS011;58587;53.034;18.576;2022-08-25T21:51:55;27.30;;;12.73;;
70927;SDS011;58587;53.034;18.576;2022-08-25T21:54:21;26.33;;;12.10;;
70927;SDS011;58587;53.034;18.576;2022-08-25T21:56:51;22.67;;;11.10;;
70927;SDS011;58587;53.034;18.576;2022-08-25T21:59:20;23.08;;;12.10;;
70927;SDS011;58587;53.034;18.576;2022-08-25T22:01:54;23.35;;;11.57;;
70927;SDS011;58587;53.034;18.576;2022-08-25T22:04:20;22.97;;;11.80;;
70927;SDS011;58587;53.034;18.576;2022-08-25T22:06:46;19.95;;;11.25;;
70927;SDS011;58587;53.034;18.576;2022-08-25T22:09:11;23.77;;;11.43;;
70927;SDS011;58587;53.034;18.576;2022-08-25T22:11:37;24.43;;;12.00;;
70927;SDS011;58587;53.034;18.576;2022-08-25T22:14:04;25.55;;;11.75;;
70927;SDS011;58587;53.034;18.576;2022-08-25T22:16:31;26.20;;;11.75;;
70927;SDS011;58587;53.034;18.576;2022-08-25T22:18:57;22.00;;;11.38;;
70927;SDS011;58587;53.034;18.576;2022-08-25T22:21:23;21.90;;;11.88;;
70927;SDS011;58587;53.034;18.576;2022-08-25T22:23:51;27.93;;;11.90;;
70927;SDS011;58587;53.034;18.576;2022-08-25T22:26:20;23.42;;;11.82;;
70927;SDS011;58587;53.034;18.576;2022-08-25T22:28:46;28.20;;;11.77;;
70927;SDS011;58587;53.034;18.576;2022-08-25T22:31:12;24.87;;;12.10;;
70927;SDS011;58587;53.034;18.576;2022-08-25T22:33:39;23.75;;;10.98;;
70927;SDS011;58587;53.034;18.576;2022-08-25T22:36:18;29.67;;;12.98;;
70927;SDS011;58587;53.034;18.576;2022-08-25T22:38:49;24.77;;;12.10;;
70927;SDS011;58587;53.034;18.576;2022-08-25T22:41:15;24.43;;;11.90;;
70927;SDS011;58587;53.034;18.576;2022-08-25T22:43:42;25.63;;;11.07;;
70927;SDS011;58587;53.034;18.576;2022-08-25T22:46:10;23.73;;;11.82;;
70927;SDS011;58587;53.034;18.576;2022-08-25T22:48:36;28.87;;;12.27;;
70927;SDS011;58587;53.034;18.576;2022-08-25T22:51:11;26.05;;;11.98;;
70927;SDS011;58587;53.034;18.576;2022-08-25T22:53:40;23.13;;;12.05;;
70927;SDS011;58587;53.034;18.576;2022-08-25T22:56:08;24.23;;;11.73;;
70927;SDS011;58587;53.034;18.576;2022-08-25T22:58:34;22.63;;;12.35;;
70927;SDS011;58587;53.034;18.576;2022-08-25T23:01:01;25.38;;;13.30;;
70927;SDS011;58587;53.034;18.576;2022-08-25T23:03:26;23.07;;;11.63;;
70927;SDS011;58587;53.034;18.576;2022-08-25T23:05:53;25.38;;;12.10;;
70927;SDS011;58587;53.034;18.576;2022-08-25T23:08:19;26.75;;;12.13;;
70927;SDS011;58587;53.034;18.576;2022-08-25T23:10:51;21.93;;;10.90;;
70927;SDS011;58587;53.034;18.576;2022-08-25T23:13:19;23.98;;;10.93;;
70927;SDS011;58587;53.034;18.576;2022-08-25T23:15:47;25.08;;;12.40;;
70927;SDS011;58587;53.034;18.576;2022-08-25T23:18:13;21.85;;;11.55;;
70927;SDS011;58587;53.034;18.576;2022-08-25T23:20:39;23.60;;;11.90;;
70927;SDS011;58587;53.034;18.576;2022-08-25T23:23:23;25.02;;;11.55;;
